createdAt,value
2023-05-05T00:00:00.138Z, 0
2023-05-05T00:02:00.176Z, 0
2023-05-05T00:04:00.279Z, 0
2023-05-05T00:06:00.128Z, 0
2023-05-05T00:08:00.116Z, 0
2023-05-05T00:10:00.149Z, 0
2023-05-05T00:12:00.138Z, 0
2023-05-05T00:14:00.140Z, 0
2023-05-05T00:16:00.110Z, 0
2023-05-05T00:18:00.228Z, 0
2023-05-05T00:20:00.150Z, 0
2023-05-05T00:22:00.067Z, 0
2023-05-05T00:24:00.044Z, 0
2023-05-05T00:26:00.049Z, 0
2023-05-05T00:28:00.046Z, 0
2023-05-05T00:30:00.072Z, 0
2023-05-05T00:32:00.045Z, 0
2023-05-05T00:34:00.058Z, 0
2023-05-05T00:36:00.081Z, 0
2023-05-05T00:38:00.068Z, 0
2023-05-05T00:40:00.044Z, 0
2023-05-05T00:42:00.072Z, 0
2023-05-05T00:44:00.044Z, 0
2023-05-05T00:46:00.081Z, 0
2023-05-05T00:48:00.121Z, 0
2023-05-05T00:50:00.049Z, 0
2023-05-05T00:52:00.097Z, 0
2023-05-05T00:54:00.138Z, 0
2023-05-05T00:56:00.127Z, 0
2023-05-05T00:58:00.144Z, 0
2023-05-05T01:00:00.210Z, 0
2023-05-05T01:02:00.230Z, 0
2023-05-05T01:04:00.274Z, 0
2023-05-05T01:06:00.151Z, 0
2023-05-05T01:08:00.158Z, 0
2023-05-05T01:10:15.068Z, 0
2023-05-05T01:12:00.119Z, 0
2023-05-05T01:14:00.133Z, 0
2023-05-05T01:16:00.124Z, 0
2023-05-05T01:18:00.157Z, 0
2023-05-05T01:20:00.132Z, 0
2023-05-05T01:22:00.074Z, 0
2023-05-05T01:24:00.097Z, 0
2023-05-05T01:26:00.091Z, 0
2023-05-05T01:28:00.071Z, 0
2023-05-05T01:30:00.073Z, 0
2023-05-05T01:32:00.149Z, 0
2023-05-05T01:34:00.051Z, 0
2023-05-05T01:36:00.059Z, 0
2023-05-05T01:38:00.044Z, 0
2023-05-05T01:40:00.054Z, 0
2023-05-05T01:42:00.043Z, 0
2023-05-05T01:44:00.051Z, 0
2023-05-05T01:46:00.087Z, 0
2023-05-05T01:48:00.120Z, 0
2023-05-05T01:50:00.047Z, 0
2023-05-05T01:52:00.131Z, 0
2023-05-05T01:54:00.124Z, 0
2023-05-05T01:56:00.136Z, 0
2023-05-05T01:58:00.116Z, 0
2023-05-05T02:00:00.125Z, 0
2023-05-05T02:02:00.263Z, 0
2023-05-05T02:04:00.106Z, 0
2023-05-05T02:06:00.119Z, 0
2023-05-05T02:08:00.177Z, 0
2023-05-05T02:10:00.196Z, 0
2023-05-05T02:12:00.120Z, 0
2023-05-05T02:14:00.214Z, 0
2023-05-05T02:16:00.171Z, 0
2023-05-05T02:18:00.185Z, 0
2023-05-05T02:20:00.150Z, 0
2023-05-05T02:22:00.077Z, 0
2023-05-05T02:24:00.083Z, 0
2023-05-05T02:26:00.052Z, 0
2023-05-05T02:28:00.043Z, 0
2023-05-05T02:30:00.070Z, 0
2023-05-05T02:32:00.049Z, 0
2023-05-05T02:34:00.053Z, 0
2023-05-05T02:36:00.103Z, 0
2023-05-05T02:38:00.085Z, 0
2023-05-05T02:40:00.078Z, 0
2023-05-05T02:42:00.073Z, 0
2023-05-05T02:44:00.074Z, 0
2023-05-05T02:46:00.094Z, 0
2023-05-05T02:48:00.073Z, 0
2023-05-05T02:50:00.045Z, 0
2023-05-05T02:52:00.106Z, 0
2023-05-05T02:54:00.120Z, 0
2023-05-05T02:56:00.137Z, 0
2023-05-05T02:58:00.133Z, 0
2023-05-05T03:00:00.125Z, 0
2023-05-05T03:02:00.230Z, 0
2023-05-05T03:04:00.140Z, 0
2023-05-05T03:06:00.157Z, 0
2023-05-05T03:08:00.131Z, 0
2023-05-05T03:10:00.171Z, 0
2023-05-05T03:12:00.109Z, 0
2023-05-05T03:14:00.118Z, 0
2023-05-05T03:16:00.165Z, 0
2023-05-05T03:18:00.144Z, 0
2023-05-05T03:20:04.804Z, 0
2023-05-05T03:22:00.076Z, 0
2023-05-05T03:24:00.079Z, 1
2023-05-05T03:26:00.067Z, 2
2023-05-05T03:28:00.074Z, 4
2023-05-05T03:30:00.072Z, 5
2023-05-05T03:32:00.124Z, 8
2023-05-05T03:34:00.054Z, 11
2023-05-05T03:36:00.064Z, 16
2023-05-05T03:38:00.046Z, 21
2023-05-05T03:40:00.065Z, 29
2023-05-05T03:42:00.076Z, 38
2023-05-05T03:44:00.056Z, 50
2023-05-05T03:46:00.077Z, 65
2023-05-05T03:48:00.153Z, 83
2023-05-05T03:50:00.045Z, 110
2023-05-05T03:52:00.107Z, 146
2023-05-05T03:54:00.150Z, 183
2023-05-05T03:56:00.159Z, 219
2023-05-05T03:58:00.134Z, 260
2023-05-05T04:00:00.155Z, 314
2023-05-05T04:02:00.135Z, 373
2023-05-05T04:04:00.168Z, 439
2023-05-05T04:06:00.146Z, 525
2023-05-05T04:08:00.145Z, 614
2023-05-05T04:10:00.143Z, 716
2023-05-05T04:12:00.103Z, 835
2023-05-05T04:14:00.102Z, 951
2023-05-05T04:16:00.194Z, 1069
2023-05-05T04:18:00.198Z, 1192
2023-05-05T04:20:00.153Z, 1312
2023-05-05T04:22:00.113Z, 1422
2023-05-05T04:24:00.071Z, 1546
2023-05-05T04:26:00.136Z, 1704
2023-05-05T04:28:00.065Z, 1895
2023-05-05T04:30:00.101Z, 2160
2023-05-05T04:32:00.080Z, 2285
2023-05-05T04:34:00.089Z, 2432
2023-05-05T04:36:00.089Z, 2657
2023-05-05T04:38:00.059Z, 2620
2023-05-05T04:40:00.066Z, 2575
2023-05-05T04:42:00.088Z, 2548
2023-05-05T04:44:00.084Z, 2646
2023-05-05T04:46:00.075Z, 2821
2023-05-05T04:48:00.120Z, 2854
2023-05-05T04:50:00.095Z, 2909
2023-05-05T04:52:00.091Z, 2986
2023-05-05T04:54:00.145Z, 3215
2023-05-05T04:56:00.118Z, 3512
2023-05-05T04:58:00.130Z, 3938
2023-05-05T05:00:00.163Z, 5140
2023-05-05T05:02:00.178Z, 6145
2023-05-05T05:04:00.291Z, 7098
2023-05-05T05:06:00.129Z, 7806
2023-05-05T05:08:00.142Z, 7438
2023-05-05T05:10:00.166Z, 7146
2023-05-05T05:12:00.121Z, 7760
2023-05-05T05:14:00.120Z, 8800
2023-05-05T05:16:00.160Z, 9675
2023-05-05T05:18:00.209Z, 10595
2023-05-05T05:20:00.226Z, 11506
2023-05-05T05:22:00.065Z, 11468
2023-05-05T05:24:00.066Z, 12715
2023-05-05T05:26:00.040Z, 12934
2023-05-05T05:28:09.616Z, 13644
2023-05-05T05:30:00.048Z, 11287
2023-05-05T05:32:00.115Z, 12893
2023-05-05T05:34:00.042Z, 12846
2023-05-05T05:36:00.037Z, 13170
2023-05-05T05:38:00.038Z, 12364
2023-05-05T05:40:00.052Z, 12782
2023-05-05T05:42:00.049Z, 13185
2023-05-05T05:44:00.082Z, 13696
2023-05-05T05:46:00.092Z, 14548
2023-05-05T05:48:00.122Z, 14880
2023-05-05T05:50:00.063Z, 14427
2023-05-05T05:52:00.092Z, 15355
2023-05-05T05:54:00.139Z, 17908
2023-05-05T05:56:00.115Z, 20955
2023-05-05T05:58:00.145Z, 26090
2023-05-05T06:00:01.971Z, 28845
2023-05-05T06:02:00.143Z, 23580
2023-05-05T06:04:00.239Z, 17429
2023-05-05T06:06:00.134Z, 15855
2023-05-05T06:08:00.109Z, 14988
2023-05-05T06:10:02.984Z, 14260
2023-05-05T06:12:00.111Z, 14384
2023-05-05T06:14:00.152Z, 14440
2023-05-05T06:16:00.176Z, 16227
2023-05-05T06:18:00.206Z, 16771
2023-05-05T06:20:00.147Z, 24650
2023-05-05T06:22:00.064Z, 22785
2023-05-05T06:24:00.076Z, 19638
2023-05-05T06:26:00.093Z, 21314
2023-05-05T06:28:00.072Z, 20971
2023-05-05T06:30:00.050Z, 24324
2023-05-05T06:32:00.008Z, 25965
2023-05-05T06:33:59.986Z, 27652
2023-05-05T06:35:59.991Z, 38479
2023-05-05T06:38:00.005Z, 35690
2023-05-05T06:40:00.058Z, 33419
2023-05-05T06:42:00.057Z, 29915
2023-05-05T06:44:00.044Z, 26885
2023-05-05T06:46:00.053Z, 16984
2023-05-05T06:48:00.198Z, 22228
2023-05-05T06:50:00.055Z, 17267
2023-05-05T06:52:00.114Z, 13152
2023-05-05T06:54:00.150Z, 13974
2023-05-05T06:56:00.100Z, 15128
2023-05-05T06:58:00.123Z, 16438
2023-05-05T07:00:00.142Z, 17566
2023-05-05T07:02:00.127Z, 27463
2023-05-05T07:04:00.162Z, 29688
2023-05-05T07:06:00.104Z, 27186
2023-05-05T07:08:00.100Z, 22985
2023-05-05T07:10:00.139Z, 27029
2023-05-05T07:12:00.194Z, 21098
2023-05-05T07:14:00.441Z, 22450
2023-05-05T07:16:00.133Z, 26565
2023-05-05T07:18:00.190Z, 30209
2023-05-05T07:20:00.145Z, 29902
2023-05-05T07:22:00.098Z, 29061
2023-05-05T07:24:00.067Z, 30970
2023-05-05T07:26:00.067Z, 31151
2023-05-05T07:28:00.040Z, 32491
2023-05-05T07:30:00.076Z, 29441
2023-05-05T07:32:00.226Z, 26625
2023-05-05T07:34:00.051Z, 26816
2023-05-05T07:36:00.060Z, 30059
2023-05-05T07:38:00.052Z, 31059
2023-05-05T07:40:00.053Z, 31263
2023-05-05T07:42:00.057Z, 36629
2023-05-05T07:44:00.045Z, 40495
2023-05-05T07:46:00.095Z, 34080
2023-05-05T07:48:00.072Z, 40478
2023-05-05T07:50:00.055Z, 35957
2023-05-05T07:52:00.107Z, 42258
2023-05-05T07:54:00.113Z, 40845
2023-05-05T07:56:00.153Z, 45352
2023-05-05T07:58:00.119Z, 43270
2023-05-05T08:00:00.152Z, 40480
2023-05-05T08:02:00.110Z, 40531
2023-05-05T08:04:00.166Z, 47308
2023-05-05T08:06:00.115Z, 44876
2023-05-05T08:08:00.112Z, 48464
2023-05-05T08:10:00.141Z, 48971
2023-05-05T08:12:00.145Z, 49130
2023-05-05T08:14:00.120Z, 51636
2023-05-05T08:16:00.164Z, 53580
2023-05-05T08:18:00.193Z, 54612
2023-05-05T08:20:00.172Z, 54612
2023-05-05T08:22:01.232Z, 54612
2023-05-05T08:24:00.089Z, 53242
2023-05-05T08:26:00.057Z, 53130
2023-05-05T08:28:00.056Z, 51571
2023-05-05T08:30:00.065Z, 54612
2023-05-05T08:32:00.280Z, 54612
2023-05-05T08:34:00.064Z, 40728
2023-05-05T08:36:00.095Z, 45275
2023-05-05T08:38:00.046Z, 43060
2023-05-05T08:40:00.253Z, 46064
2023-05-05T08:42:00.060Z, 48613
2023-05-05T08:44:00.055Z, 48755
2023-05-05T08:46:00.052Z, 48389
2023-05-05T08:48:00.105Z, 52401
2023-05-05T08:50:00.030Z, 29312
2023-05-05T08:52:00.110Z, 42849
2023-05-05T08:54:00.174Z, 36224
2023-05-05T08:56:00.151Z, 28559
2023-05-05T08:58:00.176Z, 46341
2023-05-05T09:00:00.193Z, 36717
2023-05-05T09:05:30.122Z, 36717
2023-05-05T09:05:30.181Z, 36717
2023-05-05T09:06:00.136Z, 23200
2023-05-05T09:08:00.073Z, 23258
2023-05-05T09:10:00.076Z, 22808
2023-05-05T09:12:00.093Z, 20394
2023-05-05T09:14:00.064Z, 21268
2023-05-05T09:16:00.103Z, 19972
2023-05-05T09:18:00.121Z, 19016
2023-05-05T09:20:00.101Z, 20906
2023-05-05T09:22:00.087Z, 48970
2023-05-05T09:24:07.382Z, 54612
2023-05-05T09:26:00.056Z, 48863
2023-05-05T09:28:00.047Z, 51722
2023-05-05T09:30:00.055Z, 54612
2023-05-05T09:32:00.043Z, 54612
2023-05-05T09:34:00.037Z, 53217
2023-05-05T09:36:00.053Z, 53372
2023-05-05T09:38:00.032Z, 50893
2023-05-05T09:40:00.045Z, 54612
2023-05-05T09:42:00.046Z, 54050
2023-05-05T09:44:00.034Z, 53412
2023-05-05T09:46:00.077Z, 54612
2023-05-05T09:48:00.732Z, 54612
2023-05-05T09:50:00.047Z, 54612
2023-05-05T09:52:00.134Z, 54612
2023-05-05T09:54:00.152Z, 54612
2023-05-05T09:56:00.108Z, 54612
2023-05-05T09:58:00.206Z, 54612
2023-05-05T10:00:00.131Z, 54612
2023-05-05T10:02:00.155Z, 54612
2023-05-05T10:04:00.090Z, 54612
2023-05-05T10:06:00.102Z, 54612
2023-05-05T10:08:00.113Z, 54612
2023-05-05T10:10:00.205Z, 54612
2023-05-05T10:12:00.159Z, 54612
2023-05-05T10:14:00.159Z, 54612
2023-05-05T10:16:00.146Z, 54612
2023-05-05T10:18:07.500Z, 54612
2023-05-05T10:20:00.149Z, 54612
2023-05-05T10:22:00.089Z, 54612
2023-05-05T10:24:00.057Z, 54612
2023-05-05T10:26:00.048Z, 54612
2023-05-05T10:28:00.035Z, 54612
2023-05-05T10:30:00.069Z, 54612
2023-05-05T10:32:00.079Z, 54612
2023-05-05T10:34:00.329Z, 54612
2023-05-05T10:36:00.044Z, 54612
2023-05-05T10:38:00.055Z, 54612
2023-05-05T10:40:00.071Z, 54612
2023-05-05T10:42:00.075Z, 54612
2023-05-05T10:44:02.178Z, 54612
2023-05-05T10:46:00.101Z, 54612
2023-05-05T10:48:00.141Z, 54612
2023-05-05T10:50:00.064Z, 54612
2023-05-05T10:52:00.082Z, 54612
2023-05-05T10:54:00.169Z, 22401
2023-05-05T10:56:00.105Z, 21659
2023-05-05T10:58:00.125Z, 18015
2023-05-05T11:00:00.176Z, 18212
2023-05-05T11:02:00.086Z, 19667
2023-05-05T11:04:00.179Z, 53190
2023-05-05T11:06:00.130Z, 53011
2023-05-05T11:08:00.095Z, 47884
2023-05-05T11:10:00.179Z, 22272
2023-05-05T11:12:00.084Z, 54612
2023-05-05T11:14:00.144Z, 54612
2023-05-05T11:16:00.122Z, 42869
2023-05-05T11:18:00.163Z, 51891
2023-05-05T11:20:00.157Z, 54612
2023-05-05T11:22:00.077Z, 52115
2023-05-05T11:24:00.063Z, 54612
2023-05-05T11:26:00.061Z, 54612
2023-05-05T11:28:00.088Z, 54612
2023-05-05T11:30:00.118Z, 27474
2023-05-05T11:32:00.045Z, 30144
2023-05-05T11:34:00.049Z, 18066
2023-05-05T11:36:00.046Z, 25460
2023-05-05T11:38:00.049Z, 54612
2023-05-05T11:40:00.066Z, 54612
2023-05-05T11:42:00.064Z, 54612
2023-05-05T11:44:00.045Z, 54612
2023-05-05T11:46:00.102Z, 54612
2023-05-05T11:48:00.209Z, 54612
2023-05-05T11:50:00.067Z, 54612
2023-05-05T11:52:00.135Z, 41931
2023-05-05T11:54:00.109Z, 54612
2023-05-05T11:56:00.123Z, 39188
2023-05-05T11:58:00.130Z, 36541
2023-05-05T12:00:00.133Z, 36388
2023-05-05T12:02:00.124Z, 47090
2023-05-05T12:04:00.287Z, 54370
2023-05-05T12:06:00.143Z, 54612
2023-05-05T12:08:00.149Z, 54612
2023-05-05T12:10:00.168Z, 54612
2023-05-05T12:12:00.130Z, 54612
2023-05-05T12:14:00.113Z, 54612
2023-05-05T12:16:00.171Z, 54612
2023-05-05T12:18:02.336Z, 54612
2023-05-05T12:20:00.129Z, 23059
2023-05-05T12:22:00.076Z, 50516
2023-05-05T12:24:00.085Z, 27525
2023-05-05T12:26:00.070Z, 51061
2023-05-05T12:28:00.061Z, 52534
2023-05-05T12:30:00.057Z, 54612
2023-05-05T12:32:00.166Z, 54612
2023-05-05T12:34:00.088Z, 54612
2023-05-05T12:36:00.059Z, 54612
2023-05-05T12:38:00.046Z, 54612
2023-05-05T12:40:00.073Z, 51069
2023-05-05T12:42:00.061Z, 54612
2023-05-05T12:44:00.041Z, 54612
2023-05-05T12:46:00.115Z, 54612
2023-05-05T12:48:00.155Z, 54612
2023-05-05T12:50:00.047Z, 54612
2023-05-05T12:52:00.120Z, 54612
2023-05-05T12:54:00.106Z, 54612
2023-05-05T12:56:00.135Z, 54612
2023-05-05T12:58:00.126Z, 54612
2023-05-05T13:00:00.162Z, 19697
2023-05-05T13:02:00.229Z, 14944
2023-05-05T13:04:00.119Z, 17087
2023-05-05T13:06:00.154Z, 19121
2023-05-05T13:08:00.140Z, 34758
2023-05-05T13:10:00.185Z, 26584
2023-05-05T13:12:00.127Z, 24465
2023-05-05T13:14:00.118Z, 22804
2023-05-05T13:16:00.168Z, 22880
2023-05-05T13:18:00.268Z, 24205
2023-05-05T13:20:00.132Z, 23191
2023-05-05T13:22:00.076Z, 23130
2023-05-05T13:24:16.244Z, 24390
2023-05-05T13:26:00.062Z, 26305
2023-05-05T13:28:00.071Z, 25952
2023-05-05T13:30:00.076Z, 28351
2023-05-05T13:32:00.067Z, 31351
2023-05-05T13:34:00.069Z, 29333
2023-05-05T13:36:00.048Z, 29936
2023-05-05T13:38:00.059Z, 27144
2023-05-05T13:40:00.058Z, 26553
2023-05-05T13:42:00.058Z, 27134
2023-05-05T13:44:00.064Z, 34976
2023-05-05T13:46:12.154Z, 36130
2023-05-05T13:48:00.128Z, 34021
2023-05-05T13:50:00.050Z, 39984
2023-05-05T13:52:00.161Z, 31299
2023-05-05T13:54:00.114Z, 25955
2023-05-05T13:56:00.125Z, 25214
2023-05-05T13:58:00.112Z, 23000
2023-05-05T14:00:00.150Z, 21364
2023-05-05T14:02:00.098Z, 20620
2023-05-05T14:04:02.072Z, 19712
2023-05-05T14:06:00.136Z, 18391
2023-05-05T14:08:00.119Z, 17544
2023-05-05T14:10:00.165Z, 17594
2023-05-05T14:12:00.133Z, 18379
2023-05-05T14:14:00.165Z, 19258
2023-05-05T14:16:00.251Z, 18880
2023-05-05T14:18:00.174Z, 18173
2023-05-05T14:20:00.171Z, 17207
2023-05-05T14:22:00.073Z, 15806
2023-05-05T14:24:00.060Z, 14603
2023-05-05T14:26:00.048Z, 13812
2023-05-05T14:28:00.025Z, 13147
2023-05-05T14:30:00.060Z, 12188
2023-05-05T14:32:00.105Z, 10800
2023-05-05T14:34:00.057Z, 9321
2023-05-05T14:36:00.095Z, 8316
2023-05-05T14:38:00.047Z, 8440
2023-05-05T14:40:00.052Z, 9469
2023-05-05T14:42:00.056Z, 10929
2023-05-05T14:44:00.042Z, 12806
2023-05-05T14:46:00.120Z, 14345
2023-05-05T14:48:00.110Z, 15215
2023-05-05T14:50:00.046Z, 15487
2023-05-05T14:52:00.142Z, 15205
2023-05-05T14:54:00.127Z, 14610
2023-05-05T14:56:00.089Z, 13662
2023-05-05T14:58:00.128Z, 12346
2023-05-05T15:00:00.179Z, 11424
2023-05-05T15:02:00.264Z, 11235
2023-05-05T15:04:00.255Z, 11146
2023-05-05T15:06:00.119Z, 11037
2023-05-05T15:08:00.123Z, 11292
2023-05-05T15:10:00.152Z, 11610
2023-05-05T15:12:00.127Z, 11656
2023-05-05T15:14:00.119Z, 11510
2023-05-05T15:16:00.185Z, 11122
2023-05-05T15:18:00.135Z, 10725
2023-05-05T15:20:00.115Z, 10600
2023-05-05T15:22:00.116Z, 10714
2023-05-05T15:24:00.068Z, 11153
2023-05-05T15:26:00.062Z, 12036
2023-05-05T15:28:00.062Z, 13121
2023-05-05T15:30:00.082Z, 13900
2023-05-05T15:32:00.242Z, 14321
2023-05-05T15:34:00.060Z, 14294
2023-05-05T15:36:00.074Z, 13990
2023-05-05T15:38:00.053Z, 13877
2023-05-05T15:40:00.057Z, 13906
2023-05-05T15:42:00.064Z, 13713
2023-05-05T15:44:00.048Z, 13287
2023-05-05T15:46:00.053Z, 12725
2023-05-05T15:48:00.103Z, 12479
2023-05-05T15:50:00.049Z, 12630
2023-05-05T15:52:00.116Z, 12974
2023-05-05T15:54:00.144Z, 13726
2023-05-05T15:56:00.111Z, 14400
2023-05-05T15:58:00.135Z, 14545
2023-05-05T16:00:00.157Z, 14286
2023-05-05T16:02:00.142Z, 14423
2023-05-05T16:04:00.153Z, 14720
2023-05-05T16:06:00.123Z, 14795
2023-05-05T16:08:00.165Z, 14989
2023-05-05T16:10:00.117Z, 14282
2023-05-05T16:12:00.092Z, 12610
2023-05-05T16:14:00.123Z, 10799
2023-05-05T16:16:00.122Z, 9779
2023-05-05T16:18:00.150Z, 9510
2023-05-05T16:20:00.098Z, 9405
2023-05-05T16:22:00.078Z, 8805
2023-05-05T16:24:00.064Z, 8041
2023-05-05T16:26:00.056Z, 7928
2023-05-05T16:28:00.097Z, 8335
2023-05-05T16:30:00.074Z, 8588
2023-05-05T16:32:00.094Z, 8351
2023-05-05T16:34:00.053Z, 8065
2023-05-05T16:36:00.039Z, 7657
2023-05-05T16:38:00.048Z, 6940
2023-05-05T16:40:00.106Z, 6750
2023-05-05T16:42:00.062Z, 6240
2023-05-05T16:44:00.121Z, 5226
2023-05-05T16:46:00.110Z, 4662
2023-05-05T16:48:00.100Z, 4524
2023-05-05T16:50:00.187Z, 4453
2023-05-05T16:52:00.140Z, 4498
2023-05-05T16:54:00.132Z, 4816
2023-05-05T16:56:00.111Z, 5412
2023-05-05T16:58:00.134Z, 8805
2023-05-05T17:00:00.207Z, 6254
2023-05-05T17:02:00.196Z, 6295
2023-05-05T17:04:00.100Z, 6355
2023-05-05T17:06:00.363Z, 6843
2023-05-05T17:08:00.106Z, 7677
2023-05-05T17:10:00.172Z, 8630
2023-05-05T17:12:00.125Z, 8680
2023-05-05T17:14:00.113Z, 7987
2023-05-05T17:16:00.209Z, 7056
2023-05-05T17:18:00.219Z, 5730
2023-05-05T17:20:00.150Z, 4433
2023-05-05T17:22:00.059Z, 3747
2023-05-05T17:24:00.056Z, 3221
2023-05-05T17:26:00.037Z, 2779
2023-05-05T17:28:00.037Z, 2460
2023-05-05T17:30:00.073Z, 2520
2023-05-05T17:32:00.106Z, 2995
2023-05-05T17:34:00.069Z, 2609
2023-05-05T17:36:00.063Z, 2810
2023-05-05T17:38:00.060Z, 3035
2023-05-05T17:40:00.035Z, 3413
2023-05-05T17:42:00.067Z, 3775
2023-05-05T17:44:00.042Z, 4092
2023-05-05T17:46:00.114Z, 4385
2023-05-05T17:48:00.108Z, 4791
2023-05-05T17:50:00.051Z, 4975
2023-05-05T17:52:00.130Z, 4789
2023-05-05T17:54:00.125Z, 4124
2023-05-05T17:56:00.121Z, 3368
2023-05-05T17:58:00.125Z, 2715
2023-05-05T18:00:00.164Z, 2599
2023-05-05T18:02:00.162Z, 2446
2023-05-05T18:04:00.111Z, 2110
2023-05-05T18:06:00.163Z, 1856
2023-05-05T18:08:00.157Z, 1745
2023-05-05T18:10:00.162Z, 1662
2023-05-05T18:12:00.145Z, 1643
2023-05-05T18:14:00.133Z, 1631
2023-05-05T18:16:00.149Z, 1460
2023-05-05T18:18:00.135Z, 1253
2023-05-05T18:20:00.194Z, 1109
2023-05-05T18:22:00.090Z, 890
2023-05-05T18:24:11.628Z, 744
2023-05-05T18:26:00.073Z, 652
2023-05-05T18:28:00.045Z, 582
2023-05-05T18:30:00.057Z, 527
2023-05-05T18:32:00.046Z, 475
2023-05-05T18:34:00.056Z, 423
2023-05-05T18:36:00.091Z, 378
2023-05-05T18:38:00.055Z, 361
2023-05-05T18:40:00.057Z, 386
2023-05-05T18:42:00.052Z, 409
2023-05-05T18:44:00.064Z, 394
2023-05-05T18:46:00.047Z, 375
2023-05-05T18:48:00.134Z, 360
2023-05-05T18:50:00.050Z, 310
2023-05-05T18:52:00.133Z, 268
2023-05-05T18:54:00.139Z, 226
2023-05-05T18:56:00.156Z, 185
2023-05-05T18:58:00.153Z, 152
2023-05-05T19:00:00.150Z, 118
2023-05-05T19:02:00.108Z, 91
2023-05-05T19:04:00.187Z, 70
2023-05-05T19:06:00.135Z, 53
2023-05-05T19:08:00.153Z, 40
2023-05-05T19:10:00.162Z, 30
2023-05-05T19:12:00.143Z, 22
2023-05-05T19:14:00.167Z, 15
2023-05-05T19:16:00.150Z, 11
2023-05-05T19:18:00.149Z, 8
2023-05-05T19:20:00.120Z, 5
2023-05-05T19:22:02.195Z, 4
2023-05-05T19:24:00.108Z, 2
2023-05-05T19:26:00.059Z, 1
2023-05-05T19:28:00.070Z, 0
2023-05-05T19:30:00.089Z, 0
2023-05-05T19:32:00.147Z, 0
2023-05-05T19:34:00.065Z, 0
2023-05-05T19:36:00.080Z, 0
2023-05-05T19:38:00.065Z, 0
2023-05-05T19:40:00.063Z, 0
2023-05-05T19:42:00.059Z, 0
2023-05-05T19:44:00.057Z, 0
2023-05-05T19:46:00.096Z, 0
2023-05-05T19:48:00.074Z, 0
2023-05-05T19:50:00.047Z, 0
2023-05-05T19:52:00.091Z, 0
2023-05-05T19:54:00.106Z, 0
2023-05-05T19:56:00.117Z, 0
2023-05-05T19:58:00.127Z, 0
2023-05-05T20:00:00.139Z, 0
2023-05-05T20:02:00.194Z, 0
2023-05-05T20:04:00.197Z, 0
2023-05-05T20:06:00.147Z, 0
2023-05-05T20:08:00.130Z, 0
2023-05-05T20:10:00.183Z, 0
2023-05-05T20:12:00.144Z, 0
2023-05-05T20:14:00.104Z, 0
2023-05-05T20:16:00.160Z, 0
2023-05-05T20:18:00.214Z, 0
2023-05-05T20:20:00.141Z, 0
2023-05-05T20:22:00.087Z, 0
2023-05-05T20:24:00.210Z, 0
2023-05-05T20:26:00.044Z, 0
2023-05-05T20:28:00.049Z, 0
2023-05-05T20:30:00.056Z, 0
2023-05-05T20:32:00.072Z, 0
2023-05-05T20:34:00.091Z, 0
2023-05-05T20:36:00.077Z, 0
2023-05-05T20:38:00.073Z, 0
2023-05-05T20:40:00.065Z, 0
2023-05-05T20:42:00.048Z, 0
2023-05-05T20:44:00.039Z, 0
2023-05-05T20:46:00.045Z, 0
2023-05-05T20:48:00.075Z, 0
2023-05-05T20:50:00.074Z, 0
2023-05-05T20:52:00.106Z, 0
2023-05-05T20:54:00.139Z, 0
2023-05-05T20:56:00.144Z, 0
2023-05-05T20:58:00.138Z, 0
2023-05-05T21:00:00.125Z, 0
2023-05-05T21:02:00.156Z, 0
2023-05-05T21:04:00.109Z, 0
2023-05-05T21:06:00.150Z, 0
2023-05-05T21:08:01.068Z, 0
2023-05-05T21:10:00.158Z, 0
2023-05-05T21:12:00.149Z, 0
2023-05-05T21:14:00.107Z, 0
2023-05-05T21:16:00.100Z, 0
2023-05-05T21:18:00.136Z, 0
2023-05-05T21:20:00.145Z, 0
2023-05-05T21:22:00.090Z, 0
2023-05-05T21:24:00.092Z, 0
2023-05-05T21:26:00.077Z, 0
2023-05-05T21:28:00.061Z, 0
2023-05-05T21:30:00.085Z, 0
2023-05-05T21:32:00.096Z, 0
2023-05-05T21:34:00.055Z, 0
2023-05-05T21:36:00.065Z, 0
2023-05-05T21:38:00.055Z, 0
2023-05-05T21:40:00.055Z, 0
2023-05-05T21:42:00.071Z, 0
2023-05-05T21:44:00.065Z, 0
2023-05-05T21:46:00.162Z, 0
2023-05-05T21:48:00.183Z, 0
2023-05-05T21:50:00.064Z, 0
2023-05-05T21:52:00.116Z, 0
2023-05-05T21:54:00.114Z, 0
2023-05-05T21:56:00.148Z, 0
2023-05-05T21:58:00.098Z, 0
2023-05-05T22:00:00.160Z, 0
2023-05-05T22:02:00.181Z, 0
2023-05-05T22:04:00.183Z, 0
2023-05-05T22:06:00.132Z, 0
2023-05-05T22:08:00.152Z, 0
2023-05-05T22:10:00.206Z, 0
2023-05-05T22:12:00.148Z, 0
2023-05-05T22:14:00.130Z, 0
2023-05-05T22:16:00.180Z, 0
2023-05-05T22:18:00.211Z, 0
2023-05-05T22:20:00.167Z, 0
2023-05-05T22:22:00.072Z, 0
2023-05-05T22:24:00.151Z, 0
2023-05-05T22:26:00.030Z, 0
2023-05-05T22:28:00.060Z, 0
2023-05-05T22:30:00.049Z, 0
2023-05-05T22:32:00.044Z, 0
2023-05-05T22:34:00.052Z, 0
2023-05-05T22:36:00.076Z, 0
2023-05-05T22:38:00.055Z, 0
2023-05-05T22:40:00.040Z, 0
2023-05-05T22:42:00.059Z, 0
2023-05-05T22:44:00.059Z, 0
2023-05-05T22:46:00.101Z, 0
2023-05-05T22:48:00.213Z, 0
2023-05-05T22:50:00.046Z, 0
2023-05-05T22:52:00.101Z, 0
2023-05-05T22:54:00.131Z, 0
2023-05-05T22:56:00.175Z, 0
2023-05-05T22:58:00.140Z, 0
2023-05-05T23:00:00.167Z, 0
2023-05-05T23:02:00.139Z, 0
2023-05-05T23:04:00.163Z, 0
2023-05-05T23:06:00.173Z, 0
2023-05-05T23:08:00.112Z, 0
2023-05-05T23:10:00.146Z, 0
2023-05-05T23:12:00.112Z, 0
2023-05-05T23:14:00.114Z, 0
2023-05-05T23:16:00.125Z, 0
2023-05-05T23:18:00.191Z, 0
2023-05-05T23:20:00.169Z, 0
2023-05-05T23:22:00.086Z, 0
2023-05-05T23:24:00.146Z, 0
2023-05-05T23:26:00.059Z, 0
2023-05-05T23:28:00.078Z, 0
2023-05-05T23:30:00.115Z, 0
2023-05-05T23:32:00.073Z, 0
2023-05-05T23:34:00.062Z, 0
2023-05-05T23:36:00.083Z, 0
2023-05-05T23:38:00.043Z, 0
2023-05-05T23:40:00.065Z, 0
2023-05-05T23:42:00.066Z, 0
2023-05-05T23:44:00.064Z, 0
2023-05-05T23:46:00.106Z, 0
2023-05-05T23:48:00.098Z, 0
2023-05-05T23:50:00.064Z, 0
2023-05-05T23:52:00.128Z, 0
2023-05-05T23:54:00.134Z, 0
2023-05-05T23:56:00.097Z, 0
2023-05-05T23:58:00.144Z, 0
